Time;durP1;ratioP1;P1;durP2;ratioP2;P2;SDS_P1;SDS_P2;PMS_P1;PMS_P2;Temp;Humidity;BMP_temperature;BMP_pressure;BME280_temperature;BME280_humidity;BME280_pressure;Samples;Min_cycle;Max_cycle;Signal;HPM_P1;HPM_P2
2022/09/18 00:01:16;;;;;;;5.47;0.68;;;11.70;99.90;;;;;;5092766;28;20078;-37
2022/09/18 00:03:42;;;;;;;6.72;1.25;;;11.80;99.90;;;;;;5102306;28;20122;-36
2022/09/18 00:06:16;;;;;;;6.82;0.50;;;11.70;99.90;;;;;;5104296;28;20036;-37
2022/09/18 00:08:42;;;;;;;5.35;0.68;;;11.80;99.90;;;;;;5097235;28;20024;-37
2022/09/18 00:11:11;;;;;;;5.25;0.57;;;11.80;99.90;;;;;;5101376;28;20044;-37
2022/09/18 00:13:39;;;;;;;4.40;0.30;;;11.80;99.90;;;;;;5101933;28;20066;-37
2022/09/18 00:16:06;;;;;;;8.48;0.40;;;11.80;99.90;;;;;;5109294;28;20096;-38
2022/09/18 00:18:32;;;;;;;6.53;0.50;;;11.80;99.90;;;;;;5103660;28;20098;-37
2022/09/18 00:21:13;;;;;;;5.28;0.70;;;11.80;99.90;;;;;;5104450;28;20035;-37
2022/09/18 00:23:39;;;;;;;4.38;0.40;;;11.80;99.90;;;;;;5096784;28;20046;-37
2022/09/18 00:26:07;;;;;;;4.50;0.40;;;11.80;99.90;;;;;;5102971;28;20039;-36
2022/09/18 00:28:33;;;;;;;7.50;0.45;;;11.80;99.90;;;;;;5097194;28;20044;-37
2022/09/18 00:31:20;;;;;;;3.85;0.60;;;11.80;99.90;;;;;;5105304;28;20391;-37
2022/09/18 00:33:45;;;;;;;2.60;0.52;;;11.80;99.90;;;;;;5101034;28;20036;-36
2022/09/18 00:36:16;;;;;;;4.13;0.80;;;11.80;99.90;;;;;;5094812;28;20417;-37
2022/09/18 00:38:43;;;;;;;5.97;1.08;;;11.80;99.90;;;;;;5097168;28;20119;-37
2022/09/18 00:41:22;;;;;;;5.45;0.55;;;11.80;99.90;;;;;;5097468;28;20028;-37
2022/09/18 00:43:49;;;;;;;8.27;0.75;;;11.80;99.90;;;;;;5084635;28;20058;-36
2022/09/18 00:46:29;;;;;;;3.75;0.65;;;11.80;99.90;;;;;;5098210;28;20035;-37
2022/09/18 00:49:12;;;;;;;5.45;0.50;;;11.80;99.90;;;;;;5097058;28;20106;-37
2022/09/18 00:51:39;;;;;;;5.10;0.40;;;11.90;99.90;;;;;;5106947;28;20523;-37
2022/09/18 00:54:17;;;;;;;3.75;0.50;;;11.90;99.90;;;;;;5095462;28;20066;-37
2022/09/18 00:56:44;;;;;;;5.45;0.40;;;11.90;99.90;;;;;;5098762;28;20123;-36
2022/09/18 00:59:12;;;;;;;3.83;0.57;;;11.90;99.90;;;;;;5098121;28;20039;-37
2022/09/18 01:01:38;;;;;;;4.43;0.40;;;11.80;99.90;;;;;;5095095;28;20036;-37
2022/09/18 01:04:09;;;;;;;5.63;0.50;;;11.90;99.90;;;;;;5095528;28;20141;-38
2022/09/18 01:07:08;;;;;;;2.83;0.40;;;11.80;99.90;;;;;;5093997;28;20047;-37
2022/09/18 01:09:38;;;;;;;7.65;0.70;;;11.80;99.90;;;;;;5097180;28;20522;-38
2022/09/18 01:12:31;;;;;;;3.10;0.30;;;11.80;99.90;;;;;;5095175;28;20032;-39
2022/09/18 01:15:23;;;;;;;4.93;0.40;;;11.80;99.90;;;;;;5094136;28;20039;-37
2022/09/18 01:17:53;;;;;;;3.60;0.28;;;11.80;99.90;;;;;;5098712;28;20036;-36
2022/09/18 01:20:50;;;;;;;3.80;0.40;;;11.80;99.90;;;;;;5099505;28;20036;-37
2022/09/18 01:23:30;;;;;;;3.25;0.30;;;11.80;99.90;;;;;;5100634;28;20052;-36
2022/09/18 01:26:17;;;;;;;4.00;0.70;;;11.80;99.90;;;;;;5093222;28;20040;-36
2022/09/18 01:29:04;;;;;;;6.13;0.50;;;11.80;99.90;;;;;;5098376;28;20040;-37
2022/09/18 01:31:33;;;;;;;6.15;0.57;;;11.70;99.90;;;;;;5097407;28;20352;-36
2022/09/18 01:34:10;;;;;;;4.82;0.40;;;11.70;99.90;;;;;;5103305;28;20036;-37
2022/09/18 01:36:39;;;;;;;2.95;0.30;;;11.70;99.90;;;;;;5100912;28;20520;-37
2022/09/18 01:39:14;;;;;;;3.80;0.30;;;11.70;99.90;;;;;;5098633;28;20641;-37
2022/09/18 01:41:49;;;;;;;3.67;0.32;;;11.60;99.90;;;;;;5078723;28;20028;-37
2022/09/18 01:44:22;;;;;;;5.13;0.38;;;11.60;99.90;;;;;;5098784;28;20112;-37
2022/09/18 01:46:49;;;;;;;2.83;0.17;;;11.50;99.90;;;;;;5098037;28;20039;-37
2022/09/18 01:49:21;;;;;;;3.65;0.50;;;11.50;99.90;;;;;;5102472;28;20505;-38
2022/09/18 01:51:50;;;;;;;3.10;1.10;;;11.50;99.90;;;;;;5101997;28;20392;-37
2022/09/18 01:54:23;;;;;;;3.00;0.30;;;11.50;99.90;;;;;;5099068;28;20516;-37
2022/09/18 01:56:54;;;;;;;3.10;0.95;;;11.50;99.90;;;;;;5097966;28;20428;-37
2022/09/18 02:00:01;;;;;;;2.65;0.20;;;11.50;99.90;;;;;;5091849;28;20074;-38
2022/09/18 02:02:33;;;;;;;3.15;0.32;;;11.40;99.90;;;;;;5035870;28;20521;-37
2022/09/18 02:05:03;;;;;;;3.90;0.30;;;11.40;99.90;;;;;;5082916;28;20051;-36
2022/09/18 02:07:50;;;;;;;3.30;0.20;;;11.40;99.90;;;;;;5098222;28;20040;-37
2022/09/18 02:10:18;;;;;;;0.52;0.10;;;11.40;99.90;;;;;;5100688;28;20160;-37
2022/09/18 02:12:46;;;;;;;2.08;0.20;;;11.40;99.90;;;;;;5096341;27;20122;-37
2022/09/18 02:15:14;;;;;;;2.90;0.30;;;11.30;99.90;;;;;;5104147;28;20040;-37
2022/09/18 02:17:47;;;;;;;3.10;0.20;;;11.30;99.90;;;;;;5091948;28;20265;-38
2022/09/18 02:20:27;;;;;;;2.58;0.20;;;11.30;99.90;;;;;;5074841;28;20047;-36
2022/09/18 02:22:58;;;;;;;2.42;0.20;;;11.20;99.90;;;;;;5094589;28;20479;-36
2022/09/18 02:25:30;;;;;;;2.50;0.30;;;11.20;99.90;;;;;;5083315;28;20036;-36
2022/09/18 02:27:56;;;;;;;5.75;0.40;;;11.30;99.90;;;;;;5098529;28;20047;-36
2022/09/18 02:30:24;;;;;;;1.08;0.30;;;11.20;99.90;;;;;;5097652;28;20047;-37
2022/09/18 02:32:54;;;;;;;2.13;0.25;;;11.20;99.90;;;;;;5079680;28;20117;-37
2022/09/18 02:35:22;;;;;;;2.03;0.15;;;11.30;99.90;;;;;;5095001;28;20040;-36
2022/09/18 02:38:14;;;;;;;3.25;0.32;;;11.30;99.90;;;;;;5091040;28;20040;-38
2022/09/18 02:41:10;;;;;;;3.47;0.40;;;11.30;99.90;;;;;;5097718;28;20489;-38
2022/09/18 02:43:50;;;;;;;2.85;0.28;;;11.40;99.90;;;;;;5098609;28;20035;-36
2022/09/18 02:46:34;;;;;;;2.97;0.35;;;11.40;99.90;;;;;;5102521;28;20489;-37
2022/09/18 02:49:10;;;;;;;1.25;0.20;;;11.40;99.90;;;;;;5097506;28;20081;-39
2022/09/18 02:51:53;;;;;;;3.30;0.30;;;11.40;99.90;;;;;;5095818;28;20040;-37
2022/09/18 02:54:33;;;;;;;4.80;0.55;;;11.40;99.90;;;;;;5100993;28;20127;-37
2022/09/18 02:57:05;;;;;;;2.08;0.30;;;11.40;99.90;;;;;;5093540;28;20040;-38
2022/09/18 02:59:35;;;;;;;5.53;0.37;;;11.40;99.90;;;;;;5094462;28;20044;-37
2022/09/18 03:02:02;;;;;;;2.42;0.43;;;11.40;99.90;;;;;;5100820;28;20773;-36
2022/09/18 03:04:27;;;;;;;7.38;0.57;;;11.40;99.90;;;;;;5094816;28;20098;-38
2022/09/18 03:06:54;;;;;;;3.63;0.65;;;11.40;99.90;;;;;;5097550;28;20064;-37
2022/09/18 03:09:21;;;;;;;4.05;0.38;;;11.40;99.90;;;;;;5104575;28;20115;-37
2022/09/18 03:11:48;;;;;;;3.28;0.20;;;11.40;99.90;;;;;;5098787;28;20535;-37
2022/09/18 03:14:14;;;;;;;2.22;0.28;;;11.40;99.90;;;;;;5096327;28;20119;-37
2022/09/18 03:16:40;;;;;;;1.85;0.22;;;11.40;99.90;;;;;;5101491;28;20040;-37
2022/09/18 03:19:06;;;;;;;3.70;0.30;;;11.40;99.90;;;;;;5100486;28;20051;-38
2022/09/18 03:21:31;;;;;;;4.22;0.20;;;11.40;99.90;;;;;;5095652;28;20062;-37
2022/09/18 03:23:57;;;;;;;2.78;0.38;;;11.40;99.90;;;;;;5098597;28;20455;-38
2022/09/18 03:26:23;;;;;;;5.13;0.30;;;11.40;99.90;;;;;;5099958;28;20028;-37
2022/09/18 03:28:48;;;;;;;2.35;0.20;;;11.40;99.90;;;;;;5105173;28;20028;-38
2022/09/18 03:31:14;;;;;;;4.80;0.35;;;11.40;99.90;;;;;;5096006;28;20040;-37
2022/09/18 03:33:40;;;;;;;4.43;0.73;;;11.40;99.90;;;;;;5102445;28;20040;-37
2022/09/18 03:36:07;;;;;;;3.90;0.30;;;11.40;99.90;;;;;;5103660;28;20040;-37
2022/09/18 03:38:33;;;;;;;2.88;0.20;;;11.40;99.90;;;;;;5101022;28;20028;-36
2022/09/18 03:40:59;;;;;;;2.85;0.30;;;11.40;99.90;;;;;;5102049;28;20031;-37
2022/09/18 03:43:25;;;;;;;4.68;0.50;;;11.40;99.90;;;;;;5102085;28;20046;-38
2022/09/18 03:45:51;;;;;;;4.63;0.32;;;11.40;99.90;;;;;;5097484;28;20572;-37
2022/09/18 03:48:19;;;;;;;4.53;0.45;;;11.30;99.90;;;;;;5104458;28;20082;-38
2022/09/18 03:50:47;;;;;;;1.98;0.20;;;11.30;99.90;;;;;;5099871;28;20109;-37
2022/09/18 03:53:13;;;;;;;3.15;0.40;;;11.30;99.90;;;;;;5097218;28;20031;-38
2022/09/18 03:55:39;;;;;;;3.78;0.40;;;11.30;99.90;;;;;;5100536;28;20125;-38
2022/09/18 03:58:05;;;;;;;6.50;0.25;;;11.30;99.90;;;;;;5097127;28;20036;-37
2022/09/18 04:00:31;;;;;;;3.85;0.40;;;11.30;99.90;;;;;;5097238;28;20048;-37
2022/09/18 04:02:57;;;;;;;5.32;0.45;;;11.30;99.90;;;;;;5098375;28;20046;-37
2022/09/18 04:05:23;;;;;;;4.15;0.32;;;11.30;99.90;;;;;;5110130;27;20073;-37
2022/09/18 04:07:49;;;;;;;1.38;0.20;;;11.30;99.90;;;;;;5099037;28;20477;-36
2022/09/18 04:10:15;;;;;;;1.02;0.20;;;11.30;99.90;;;;;;5097876;28;20433;-37
2022/09/18 04:12:43;;;;;;;0.85;0.25;;;11.30;99.90;;;;;;5098666;28;20032;-37
2022/09/18 04:15:09;;;;;;;1.15;0.30;;;11.30;99.90;;;;;;5096654;28;20078;-37
2022/09/18 04:17:35;;;;;;;4.60;0.22;;;11.30;99.90;;;;;;5101266;28;20059;-36
2022/09/18 04:20:00;;;;;;;2.10;0.25;;;11.30;99.90;;;;;;5102511;28;20036;-37
2022/09/18 04:22:26;;;;;;;2.88;0.25;;;11.30;99.90;;;;;;5099100;28;20151;-37
2022/09/18 04:24:52;;;;;;;1.95;0.20;;;11.30;99.90;;;;;;5100774;28;20401;-37
2022/09/18 04:27:17;;;;;;;2.05;0.20;;;11.30;99.90;;;;;;5100674;28;20102;-37
2022/09/18 04:29:43;;;;;;;1.92;0.20;;;11.30;99.90;;;;;;5099818;28;20040;-36
2022/09/18 04:32:09;;;;;;;2.83;0.10;;;11.30;99.90;;;;;;5098599;28;20036;-37
2022/09/18 04:34:35;;;;;;;2.08;0.30;;;11.20;99.90;;;;;;5106360;27;20119;-36
2022/09/18 04:37:00;;;;;;;4.47;0.28;;;11.20;99.90;;;;;;5105788;28;20069;-38
2022/09/18 04:39:28;;;;;;;2.78;0.43;;;11.20;99.90;;;;;;5095442;28;20044;-36
2022/09/18 04:41:54;;;;;;;3.17;0.20;;;11.20;99.90;;;;;;5097027;28;20488;-37
2022/09/18 04:44:20;;;;;;;4.10;0.20;;;11.10;99.90;;;;;;5099105;28;20043;-37
2022/09/18 04:46:46;;;;;;;3.33;0.10;;;11.10;99.90;;;;;;5101792;28;20114;-37
2022/09/18 04:49:11;;;;;;;1.42;0.25;;;11.10;99.90;;;;;;5098535;28;20027;-37
2022/09/18 04:51:37;;;;;;;1.52;0.20;;;11.10;99.90;;;;;;5101658;28;20035;-37
2022/09/18 04:54:04;;;;;;;2.78;0.22;;;11.10;99.90;;;;;;5095122;28;20044;-36
2022/09/18 04:56:30;;;;;;;1.40;0.17;;;11.10;99.90;;;;;;5104043;28;20051;-37
2022/09/18 04:58:55;;;;;;;1.05;0.10;;;11.00;99.90;;;;;;5097187;28;20094;-38
2022/09/18 05:01:21;;;;;;;2.10;0.30;;;11.00;99.90;;;;;;5102213;27;20038;-36
2022/09/18 05:03:47;;;;;;;4.45;0.20;;;11.00;99.90;;;;;;5095901;28;20089;-37
2022/09/18 05:06:12;;;;;;;4.55;0.47;;;11.10;99.90;;;;;;5100514;28;20032;-37
2022/09/18 05:08:38;;;;;;;1.05;0.08;;;11.10;99.90;;;;;;5102575;28;20070;-37
2022/09/18 05:11:04;;;;;;;1.90;0.50;;;11.10;99.90;;;;;;5097451;28;20498;-36
2022/09/18 05:13:30;;;;;;;1.88;0.20;;;11.10;99.90;;;;;;5099265;28;20095;-37
2022/09/18 05:15:56;;;;;;;3.30;0.20;;;11.10;99.90;;;;;;5100833;28;20834;-36
2022/09/18 05:18:23;;;;;;;2.60;0.20;;;11.10;99.90;;;;;;5096167;28;20043;-38
2022/09/18 05:20:48;;;;;;;2.20;0.20;;;11.10;99.90;;;;;;5095994;28;20769;-46
2022/09/18 05:23:14;;;;;;;4.38;0.20;;;11.10;99.90;;;;;;5096844;28;20035;-37
2022/09/18 05:25:41;;;;;;;2.92;0.30;;;11.10;99.90;;;;;;5098139;28;20039;-37
2022/09/18 05:28:09;;;;;;;2.90;0.20;;;11.10;99.90;;;;;;5105604;28;20118;-38
2022/09/18 05:30:35;;;;;;;4.25;0.30;;;11.10;99.90;;;;;;5099441;28;20036;-37
2022/09/18 05:33:08;;;;;;;3.33;0.52;;;11.10;99.90;;;;;;5094646;28;20028;-38
2022/09/18 05:35:35;;;;;;;2.85;0.25;;;11.10;99.90;;;;;;5094926;28;20035;-36
2022/09/18 05:38:01;;;;;;;4.43;0.25;;;11.10;99.90;;;;;;5099019;28;20082;-37
2022/09/18 05:40:30;;;;;;;3.20;0.40;;;11.10;99.90;;;;;;5081494;28;20515;-37
2022/09/18 05:42:57;;;;;;;4.65;0.30;;;11.10;99.90;;;;;;5102395;27;20048;-38
2022/09/18 05:45:23;;;;;;;5.90;0.30;;;11.10;99.90;;;;;;5097494;27;20137;-37
2022/09/18 05:47:57;;;;;;;1.92;0.22;;;11.10;99.90;;;;;;5096805;28;20031;-37
2022/09/18 05:50:24;;;;;;;2.03;0.32;;;11.10;99.90;;;;;;5097532;27;20059;-37
2022/09/18 05:53:04;;;;;;;4.93;0.30;;;11.10;99.90;;;;;;5104015;28;20071;-37
2022/09/18 05:55:31;;;;;;;4.25;0.30;;;11.10;99.90;;;;;;5099984;28;20047;-37
2022/09/18 05:57:57;;;;;;;4.30;0.40;;;11.10;99.90;;;;;;5097721;28;20429;-37
2022/09/18 06:00:24;;;;;;;3.78;0.95;;;11.10;99.90;;;;;;5099107;28;20412;-37
2022/09/18 06:02:55;;;;;;;6.18;0.30;;;11.10;99.90;;;;;;5098002;28;20036;-36
2022/09/18 06:05:22;;;;;;;3.95;0.20;;;11.10;99.90;;;;;;5100381;28;20043;-37
2022/09/18 06:07:48;;;;;;;2.15;0.30;;;11.10;99.90;;;;;;5099448;28;20496;-38
2022/09/18 06:10:14;;;;;;;4.60;0.40;;;11.20;99.90;;;;;;5096844;28;20554;-37
2022/09/18 06:12:39;;;;;;;3.80;0.40;;;11.20;99.90;;;;;;5096215;28;20039;-37
2022/09/18 06:15:05;;;;;;;1.73;0.20;;;11.20;99.90;;;;;;5092612;28;20111;-39
2022/09/18 06:17:31;;;;;;;3.78;0.75;;;11.30;99.90;;;;;;5096927;28;20097;-36
2022/09/18 06:19:58;;;;;;;2.75;1.17;;;11.30;99.90;;;;;;5089435;28;20078;-36
2022/09/18 06:22:25;;;;;;;6.18;0.20;;;11.30;99.90;;;;;;5094000;28;20101;-37
2022/09/18 06:24:50;;;;;;;3.85;0.30;;;11.30;99.90;;;;;;5092162;28;20123;-36
2022/09/18 06:27:16;;;;;;;4.68;0.40;;;11.30;99.90;;;;;;5069678;28;20154;-36
2022/09/18 06:29:42;;;;;;;3.42;0.43;;;11.40;99.90;;;;;;5095193;28;20024;-38
2022/09/18 06:32:08;;;;;;;5.63;0.65;;;11.40;99.90;;;;;;5099730;28;20078;-38
2022/09/18 06:34:34;;;;;;;3.13;0.40;;;11.40;99.90;;;;;;5097993;28;20114;-37
2022/09/18 06:37:00;;;;;;;4.53;0.73;;;11.40;99.90;;;;;;5093274;27;20032;-38
2022/09/18 06:39:26;;;;;;;1.77;0.30;;;11.40;99.90;;;;;;5093793;28;20503;-37
2022/09/18 06:41:52;;;;;;;3.00;0.40;;;11.40;99.90;;;;;;5100600;28;20028;-37
2022/09/18 06:44:18;;;;;;;4.55;0.30;;;11.40;99.90;;;;;;5093753;28;20050;-38
2022/09/18 06:46:43;;;;;;;2.47;0.35;;;11.40;99.90;;;;;;5096591;28;20104;-37
2022/09/18 06:49:09;;;;;;;6.65;0.88;;;11.50;99.90;;;;;;5098580;28;20427;-37
2022/09/18 06:51:35;;;;;;;4.50;0.63;;;11.40;99.90;;;;;;5101955;28;20028;-37
2022/09/18 06:54:00;;;;;;;2.67;0.22;;;11.50;99.90;;;;;;5097709;28;20040;-38
2022/09/18 06:56:26;;;;;;;3.45;0.20;;;11.50;99.90;;;;;;5091922;28;20401;-37
2022/09/18 06:58:52;;;;;;;5.38;0.30;;;11.50;99.90;;;;;;5092473;28;20062;-37
2022/09/18 07:01:18;;;;;;;4.72;0.40;;;11.50;99.90;;;;;;5101426;28;20038;-37
2022/09/18 07:03:47;;;;;;;2.47;0.30;;;11.50;99.90;;;;;;5096537;28;20051;-38
2022/09/18 07:06:13;;;;;;;3.88;0.50;;;11.60;99.90;;;;;;5104156;28;20129;-37
2022/09/18 07:08:39;;;;;;;5.22;0.40;;;11.60;99.90;;;;;;5094232;28;20481;-37
2022/09/18 07:11:04;;;;;;;2.60;0.20;;;11.60;99.90;;;;;;5094475;28;20393;-37
2022/09/18 07:13:31;;;;;;;4.60;0.43;;;11.60;99.90;;;;;;5093495;28;20036;-39
2022/09/18 07:15:57;;;;;;;4.85;0.65;;;11.60;99.90;;;;;;5079259;28;20063;-37
2022/09/18 07:18:23;;;;;;;3.70;0.40;;;11.60;99.90;;;;;;5099683;28;20477;-37
2022/09/18 07:20:49;;;;;;;2.40;0.20;;;11.60;99.90;;;;;;5094748;28;20382;-36
2022/09/18 07:23:15;;;;;;;3.80;0.20;;;11.60;99.90;;;;;;5092055;28;20127;-38
2022/09/18 07:25:41;;;;;;;1.48;0.20;;;11.60;99.90;;;;;;5094836;28;20044;-37
2022/09/18 07:28:09;;;;;;;6.55;0.40;;;11.70;99.90;;;;;;5099263;28;20077;-38
2022/09/18 07:30:35;;;;;;;1.33;0.20;;;11.70;99.90;;;;;;5094020;28;20074;-38
2022/09/18 07:33:02;;;;;;;3.95;0.30;;;11.80;99.90;;;;;;5093728;28;20497;-38
2022/09/18 07:35:28;;;;;;;5.97;0.43;;;11.90;99.90;;;;;;5098777;28;20073;-37
2022/09/18 07:37:58;;;;;;;2.67;0.20;;;11.90;99.90;;;;;;5092659;28;20082;-37
2022/09/18 07:40:25;;;;;;;1.70;0.30;;;11.90;99.90;;;;;;5091002;28;20537;-37
2022/09/18 07:42:51;;;;;;;2.38;0.30;;;11.90;99.90;;;;;;5097529;28;20048;-37
2022/09/18 07:45:17;;;;;;;3.47;0.28;;;11.90;99.90;;;;;;5075345;28;20142;-37
2022/09/18 07:47:43;;;;;;;3.55;0.20;;;11.90;99.90;;;;;;5097156;28;20510;-38
2022/09/18 07:50:14;;;;;;;2.95;0.30;;;11.90;99.90;;;;;;5097378;28;20085;-38
2022/09/18 07:52:48;;;;;;;3.03;0.30;;;11.90;99.90;;;;;;5094256;28;20035;-38
2022/09/18 07:55:13;;;;;;;1.52;0.30;;;11.90;99.90;;;;;;5095624;28;20118;-37
2022/09/18 07:57:39;;;;;;;2.17;0.25;;;11.90;99.90;;;;;;5098357;28;20568;-38
2022/09/18 08:00:07;;;;;;;5.75;0.20;;;11.90;99.90;;;;;;5105456;28;20504;-37
2022/09/18 08:02:32;;;;;;;0.93;0.20;;;12.00;99.90;;;;;;5096070;28;20074;-38
2022/09/18 08:04:58;;;;;;;1.35;0.30;;;12.00;99.90;;;;;;5096518;28;20749;-42
2022/09/18 08:07:24;;;;;;;3.20;0.28;;;12.00;99.90;;;;;;5098512;28;20047;-37
2022/09/18 08:09:49;;;;;;;1.13;0.10;;;12.00;99.90;;;;;;5097906;28;20043;-38
2022/09/18 08:12:15;;;;;;;1.58;0.20;;;11.90;99.90;;;;;;5098458;28;20043;-37
2022/09/18 08:14:40;;;;;;;1.25;0.20;;;12.00;99.90;;;;;;5098813;28;20083;-38
2022/09/18 08:17:06;;;;;;;1.73;0.30;;;11.90;99.90;;;;;;5097034;28;20116;-39
2022/09/18 08:19:32;;;;;;;0.47;0.20;;;11.90;99.90;;;;;;5093696;28;20043;-38
2022/09/18 08:21:57;;;;;;;0.68;0.10;;;11.80;99.90;;;;;;5101302;28;20063;-37
2022/09/18 08:24:23;;;;;;;0.43;0.10;;;11.70;99.90;;;;;;5096450;28;20044;-37
2022/09/18 08:26:49;;;;;;;1.65;0.20;;;11.70;99.90;;;;;;5098409;28;20031;-38
2022/09/18 08:29:17;;;;;;;1.13;0.20;;;11.60;99.90;;;;;;5096364;28;20166;-37
2022/09/18 08:31:45;;;;;;;0.57;0.10;;;11.50;99.90;;;;;;5088701;28;20050;-36
2022/09/18 08:34:10;;;;;;;1.75;0.20;;;11.40;99.90;;;;;;5096353;28;20039;-36
2022/09/18 08:36:36;;;;;;;1.27;0.10;;;11.40;99.90;;;;;;5096594;28;20047;-36
2022/09/18 08:39:02;;;;;;;3.00;0.20;;;11.40;99.90;;;;;;5087155;28;20065;-37
2022/09/18 08:41:49;;;;;;;1.95;0.25;;;11.40;99.90;;;;;;5097974;28;20035;-37
2022/09/18 08:44:29;;;;;;;1.10;0.15;;;11.30;99.90;;;;;;5102634;28;20511;-38
2022/09/18 08:47:12;;;;;;;1.27;0.20;;;11.30;99.90;;;;;;5100956;28;20040;-37
2022/09/18 08:49:43;;;;;;;0.52;0.10;;;11.20;99.90;;;;;;5098900;28;20042;-37
2022/09/18 08:52:16;;;;;;;1.20;0.10;;;11.20;99.90;;;;;;5093300;28;20539;-37
2022/09/18 08:54:45;;;;;;;;;;;11.20;99.90;;;;;;5095946;28;20481;-37
2022/09/18 08:57:33;;;;;;;2.55;0.10;;;11.20;99.90;;;;;;5098549;28;19985;-38
2022/09/18 09:00:24;;;;;;;0.25;0.00;;;11.20;99.90;;;;;;5095642;28;20638;-37
2022/09/18 09:02:55;;;;;;;1.50;0.20;;;11.20;99.90;;;;;;5079946;28;20063;-37
2022/09/18 09:05:27;;;;;;;0.75;0.10;;;11.20;99.90;;;;;;5106025;28;20044;-38
2022/09/18 09:08:20;;;;;;;1.87;0.20;;;11.20;99.90;;;;;;5096471;28;20197;-37
2022/09/18 09:10:53;;;;;;;1.33;0.20;;;11.30;99.90;;;;;;5081159;28;20048;-38
2022/09/18 09:13:57;;;;;;;1.42;0.10;;;11.30;99.90;;;;;;5094436;28;20044;-37
2022/09/18 09:16:34;;;;;;;0.98;0.10;;;11.30;99.90;;;;;;5102528;28;20045;-38
2022/09/18 09:19:08;;;;;;;1.42;0.20;;;11.30;99.90;;;;;;5097085;28;20040;-37
2022/09/18 09:22:12;;;;;;;2.45;0.20;;;11.30;99.90;;;;;;5096845;28;20120;-39
2022/09/18 09:24:59;;;;;;;1.48;0.20;;;11.30;99.90;;;;;;5099917;28;20040;-38
2022/09/18 09:27:51;;;;;;;0.65;0.10;;;11.30;99.90;;;;;;5091554;28;20047;-38
2022/09/18 09:30:20;;;;;;;2.53;0.30;;;11.30;99.90;;;;;;5085300;28;20045;-38
2022/09/18 09:33:12;;;;;;;2.05;0.30;;;11.30;99.90;;;;;;5099247;28;20043;-38
2022/09/18 09:35:44;;;;;;;2.80;0.20;;;11.40;99.90;;;;;;5080856;28;20409;-38
2022/09/18 09:38:34;;;;;;;3.13;0.17;;;11.40;99.90;;;;;;5097372;28;20055;-37
2022/09/18 09:41:11;;;;;;;3.03;0.22;;;11.40;99.90;;;;;;5093804;28;20066;-37
2022/09/18 09:43:58;;;;;;;4.18;0.20;;;11.40;99.90;;;;;;5098460;28;20130;-37
2022/09/18 09:46:50;;;;;;;2.08;0.10;;;11.50;99.90;;;;;;5095098;28;20035;-37
2022/09/18 09:49:26;;;;;;;6.20;0.20;;;11.50;99.90;;;;;;5101459;28;20089;-37
2022/09/18 09:52:20;;;;;;;1.92;0.20;;;11.60;99.90;;;;;;5095044;27;20065;-38
2022/09/18 09:54:59;;;;;;;2.90;0.30;;;11.60;99.90;;;;;;5099121;28;20480;-38
2022/09/18 09:57:38;;;;;;;4.15;0.40;;;11.70;99.90;;;;;;5098299;28;20046;-37
2022/09/18 10:00:14;;;;;;;4.25;0.35;;;11.80;99.90;;;;;;5098221;28;20050;-37
2022/09/18 10:02:58;;;;;;;5.20;0.35;;;11.80;99.90;;;;;;5098911;28;20118;-38
2022/09/18 10:05:30;;;;;;;4.50;0.30;;;11.90;99.90;;;;;;5094279;28;21045;-36
2022/09/18 10:08:04;;;;;;;3.55;0.40;;;12.00;99.90;;;;;;5098783;28;20127;-38
2022/09/18 10:10:38;;;;;;;2.95;0.20;;;12.00;99.90;;;;;;5097346;28;20408;-36
2022/09/18 10:13:18;;;;;;;3.10;0.40;;;12.10;99.90;;;;;;5090714;28;20067;-37
2022/09/18 10:15:48;;;;;;;2.65;0.20;;;12.20;99.90;;;;;;5098684;28;20488;-36
2022/09/18 10:18:34;;;;;;;0.68;0.17;;;12.20;99.90;;;;;;5095238;27;20538;-37
2022/09/18 10:21:11;;;;;;;3.55;0.30;;;12.20;99.90;;;;;;5101817;28;20043;-38
2022/09/18 10:23:42;;;;;;;3.25;0.20;;;12.20;99.90;;;;;;5091475;28;20123;-36
2022/09/18 10:26:38;;;;;;;3.50;0.20;;;12.20;99.90;;;;;;5094213;28;20035;-38
2022/09/18 10:29:04;;;;;;;4.25;0.30;;;12.10;99.90;;;;;;5091430;28;20036;-37
2022/09/18 10:31:51;;;;;;;1.80;0.20;;;12.10;99.90;;;;;;5092876;27;20570;-38
2022/09/18 10:34:48;;;;;;;5.18;0.50;;;12.20;99.90;;;;;;5092664;28;20036;-37
2022/09/18 10:37:39;;;;;;;3.00;0.20;;;12.10;99.90;;;;;;5094395;28;20028;-38
2022/09/18 10:40:25;;;;;;;1.85;0.10;;;12.10;99.90;;;;;;5096235;28;20078;-37
2022/09/18 10:42:54;;;;;;;3.00;0.20;;;12.10;99.90;;;;;;5093833;28;20052;-36
2022/09/18 10:45:26;;;;;;;2.08;0.47;;;12.10;99.90;;;;;;5093058;28;20047;-38
2022/09/18 10:48:14;;;;;;;1.05;0.10;;;12.20;99.90;;;;;;5091343;28;20036;-38
2022/09/18 10:51:03;;;;;;;1.55;0.28;;;12.20;99.90;;;;;;5094847;28;20089;-38
2022/09/18 10:53:29;;;;;;;2.50;0.30;;;12.20;99.90;;;;;;5078829;28;20118;-37
2022/09/18 10:56:03;;;;;;;2.03;0.32;;;12.20;99.90;;;;;;5091613;28;20648;-37
2022/09/18 10:58:31;;;;;;;1.60;0.13;;;12.20;99.90;;;;;;5091878;28;20048;-37
2022/09/18 11:01:06;;;;;;;3.92;0.82;;;12.20;99.90;;;;;;5094100;28;20040;-38
2022/09/18 11:03:37;;;;;;;2.60;0.30;;;12.10;99.90;;;;;;5098124;28;20042;-37
2022/09/18 11:06:24;;;;;;;3.67;0.30;;;12.10;99.90;;;;;;5098579;28;20126;-37
2022/09/18 11:08:55;;;;;;;1.08;0.20;;;12.00;99.90;;;;;;5095777;28;20039;-37
2022/09/18 11:11:23;;;;;;;1.63;0.28;;;12.00;99.90;;;;;;5093359;28;20064;-36
2022/09/18 11:14:01;;;;;;;1.33;0.20;;;12.00;99.90;;;;;;5090869;28;20032;-38
2022/09/18 11:16:30;;;;;;;3.47;0.30;;;12.00;99.90;;;;;;5093952;28;20532;-37
2022/09/18 11:19:03;;;;;;;1.70;0.30;;;12.00;99.90;;;;;;5087047;28;20044;-37
2022/09/18 11:21:29;;;;;;;1.50;0.22;;;12.10;99.90;;;;;;5095770;28;20055;-38
2022/09/18 11:24:04;;;;;;;2.85;0.30;;;12.10;99.90;;;;;;5075358;28;20501;-38
2022/09/18 11:26:30;;;;;;;2.72;0.30;;;12.10;99.90;;;;;;5096298;28;20046;-37
2022/09/18 11:29:30;;;;;;;1.35;0.20;;;12.10;99.90;;;;;;5097720;28;20485;-37
2022/09/18 11:32:24;;;;;;;3.67;0.20;;;12.10;99.90;;;;;;5097943;28;20497;-38
2022/09/18 11:34:53;;;;;;;3.72;0.40;;;12.20;99.90;;;;;;5078281;28;20047;-37
2022/09/18 11:37:42;;;;;;;3.08;0.20;;;12.20;99.90;;;;;;5093948;28;20040;-37
2022/09/18 11:40:21;;;;;;;5.25;0.40;;;12.20;99.90;;;;;;5092471;28;20391;-38
2022/09/18 11:42:51;;;;;;;3.03;0.30;;;12.20;99.90;;;;;;5099389;28;20099;-38
2022/09/18 11:45:55;;;;;;;1.58;0.20;;;12.30;99.90;;;;;;5079471;28;20161;-38
2022/09/18 11:48:39;;;;;;;4.05;0.35;;;12.40;99.90;;;;;;5094444;28;20044;-37
2022/09/18 11:51:28;;;;;;;1.42;0.30;;;12.40;99.90;;;;;;5094140;28;20067;-37
2022/09/18 11:54:05;;;;;;;3.33;0.32;;;12.40;99.90;;;;;;5098602;28;20032;-37
2022/09/18 11:56:48;;;;;;;3.95;0.30;;;12.50;99.90;;;;;;5095781;28;20052;-38
2022/09/18 11:59:25;;;;;;;4.05;0.43;;;12.50;99.90;;;;;;5102406;28;20035;-37
2022/09/18 12:01:57;;;;;;;3.30;0.20;;;12.50;99.90;;;;;;5095979;28;20035;-38
2022/09/18 12:05:08;;;;;;;4.90;0.22;;;12.50;99.90;;;;;;5097372;28;20518;-38
2022/09/18 12:07:55;;;;;;;4.05;0.38;;;12.60;99.90;;;;;;5026331;28;20041;-37
2022/09/18 12:10:26;;;;;;;2.15;0.40;;;12.60;99.90;;;;;;5026356;28;20653;-37
2022/09/18 12:13:17;;;;;;;6.20;0.83;;;12.70;99.90;;;;;;5071712;28;20040;-36
2022/09/18 12:15:49;;;;;;;6.30;0.93;;;12.70;99.90;;;;;;5098844;28;20281;-38
2022/09/18 12:18:21;;;;;;;2.63;0.32;;;12.70;99.90;;;;;;5098763;28;20040;-38
2022/09/18 12:21:00;;;;;;;4.45;0.50;;;12.80;99.90;;;;;;5102058;28;20050;-37
2022/09/18 12:23:26;;;;;;;4.00;0.50;;;12.80;99.90;;;;;;5098209;28;20052;-39
2022/09/18 12:26:21;;;;;;;5.32;0.60;;;12.90;99.90;;;;;;5092617;28;20495;-37
2022/09/18 12:29:12;;;;;;;4.00;0.32;;;13.00;99.90;;;;;;5083809;28;20169;-38
2022/09/18 12:32:15;;;;;;;5.10;0.60;;;13.00;99.90;;;;;;5098657;27;20043;-44
2022/09/18 12:35:13;;;;;;;6.18;0.60;;;13.00;99.90;;;;;;5085695;28;20085;-38
2022/09/18 12:37:52;;;;;;;6.82;0.70;;;13.10;99.90;;;;;;5043095;28;20079;-37
2022/09/18 12:40:39;;;;;;;4.40;0.40;;;13.10;99.90;;;;;;5098249;28;20032;-39
2022/09/18 12:43:33;;;;;;;5.57;0.50;;;13.10;99.90;;;;;;5092697;28;20044;-37
2022/09/18 12:46:26;;;;;;;4.70;0.60;;;13.00;99.90;;;;;;5093834;28;20036;-43
2022/09/18 12:49:17;;;;;;;5.13;0.80;;;13.00;99.90;;;;;;5097181;28;20036;-38
2022/09/18 12:52:10;;;;;;;4.85;0.88;;;13.00;99.90;;;;;;5093610;28;20042;-37
2022/09/18 12:54:42;;;;;;;2.38;0.40;;;13.00;99.90;;;;;;5083709;28;20052;-37
2022/09/18 12:57:30;;;;;;;3.20;0.40;;;13.00;99.90;;;;;;5097293;28;20115;-38
2022/09/18 13:00:18;;;;;;;6.18;1.67;;;13.00;99.90;;;;;;5097264;28;20072;-38
2022/09/18 13:03:22;;;;;;;3.58;0.65;;;13.00;99.90;;;;;;5101671;28;20477;-37
2022/09/18 13:06:19;;;;;;;1.58;0.30;;;13.00;99.90;;;;;;5092752;28;20447;-37
2022/09/18 13:08:56;;;;;;;4.25;0.50;;;13.00;99.90;;;;;;5097627;28;20038;-38
2022/09/18 13:11:32;;;;;;;5.85;1.05;;;13.00;99.90;;;;;;5070056;28;20043;-39
2022/09/18 13:14:13;;;;;;;3.25;0.80;;;13.00;99.90;;;;;;5080042;28;20477;-39
2022/09/18 13:17:08;;;;;;;5.07;0.70;;;12.90;99.90;;;;;;5098728;28;20036;-37
2022/09/18 13:19:40;;;;;;;4.38;0.45;;;12.90;99.90;;;;;;5088598;28;20317;-36